sensor_id;sensor_type;location;lat;lon;timestamp;temperature;humidity
18373;DHT22;9313;51.27979100;4.44632000;2022-08-04T00:00:44;20.90;99.90
18373;DHT22;9313;51.27979100;4.44632000;2022-08-04T00:03:12;20.80;99.90
18373;DHT22;9313;51.27979100;4.44632000;2022-08-04T00:06:03;20.80;99.90
18373;DHT22;9313;51.27979100;4.44632000;2022-08-04T00:11:07;20.80;99.90
18373;DHT22;9313;51.27979100;4.44632000;2022-08-04T00:13:39;20.80;99.90
18373;DHT22;9313;51.27979100;4.44632000;2022-08-04T00:16:10;20.70;99.90
18373;DHT22;9313;51.27979100;4.44632000;2022-08-04T00:18:52;20.70;99.90
18373;DHT22;9313;51.27979100;4.44632000;2022-08-04T00:21:21;20.70;99.90
18373;DHT22;9313;51.27979100;4.44632000;2022-08-04T00:23:54;20.70;99.90
18373;DHT22;9313;51.27979100;4.44632000;2022-08-04T00:26:21;20.60;99.90
18373;DHT22;9313;51.27979100;4.44632000;2022-08-04T00:28:50;20.60;99.90
18373;DHT22;9313;51.27979100;4.44632000;2022-08-04T00:31:15;20.60;99.90
18373;DHT22;9313;51.27979100;4.44632000;2022-08-04T00:33:45;20.50;99.90
18373;DHT22;9313;51.27979100;4.44632000;2022-08-04T00:36:15;20.50;99.90
18373;DHT22;9313;51.27979100;4.44632000;2022-08-04T00:38:42;20.50;99.90
18373;DHT22;9313;51.27979100;4.44632000;2022-08-04T00:41:29;20.40;99.90
18373;DHT22;9313;51.27979100;4.44632000;2022-08-04T00:53:17;20.30;99.90
18373;DHT22;9313;51.27979100;4.44632000;2022-08-04T01:01:03;20.30;99.90
18373;DHT22;9313;51.27979100;4.44632000;2022-08-04T01:03:41;20.30;99.90
18373;DHT22;9313;51.27979100;4.44632000;2022-08-04T01:06:43;20.20;99.90
18373;DHT22;9313;51.27979100;4.44632000;2022-08-04T01:11:50;20.20;99.90
18373;DHT22;9313;51.27979100;4.44632000;2022-08-04T01:20:07;20.10;99.90
18373;DHT22;9313;51.27979100;4.44632000;2022-08-04T01:31:10;20.00;99.90
18373;DHT22;9313;51.27979100;4.44632000;2022-08-04T01:33:42;20.00;99.90
18373;DHT22;9313;51.27979100;4.44632000;2022-08-04T01:36:16;20.00;99.90
18373;DHT22;9313;51.27979100;4.44632000;2022-08-04T01:38:44;20.00;99.90
18373;DHT22;9313;51.27979100;4.44632000;2022-08-04T01:41:13;19.90;99.90
18373;DHT22;9313;51.27979100;4.44632000;2022-08-04T01:43:44;19.90;99.90
18373;DHT22;9313;51.27979100;4.44632000;2022-08-04T01:46:16;19.90;99.90
18373;DHT22;9313;51.27979100;4.44632000;2022-08-04T01:48:46;19.90;99.90
18373;DHT22;9313;51.27979100;4.44632000;2022-08-04T01:51:22;19.90;99.90
18373;DHT22;9313;51.27979100;4.44632000;2022-08-04T01:53:49;19.90;99.90
18373;DHT22;9313;51.27979100;4.44632000;2022-08-04T01:56:15;19.90;99.90
18373;DHT22;9313;51.27979100;4.44632000;2022-08-04T01:58:43;19.90;99.90
18373;DHT22;9313;51.27979100;4.44632000;2022-08-04T02:01:12;19.90;99.90
18373;DHT22;9313;51.27979100;4.44632000;2022-08-04T02:03:43;19.90;99.90
18373;DHT22;9313;51.27979100;4.44632000;2022-08-04T02:11:30;19.80;99.90
18373;DHT22;9313;51.27979100;4.44632000;2022-08-04T02:14:05;19.80;99.90
18373;DHT22;9313;51.27979100;4.44632000;2022-08-04T02:16:43;19.80;99.90
18373;DHT22;9313;51.27979100;4.44632000;2022-08-04T02:22:07;19.80;99.90
18373;DHT22;9313;51.27979100;4.44632000;2022-08-04T02:24:44;19.80;99.90
18373;DHT22;9313;51.27979100;4.44632000;2022-08-04T02:27:16;19.80;99.90
18373;DHT22;9313;51.27979100;4.44632000;2022-08-04T02:30:02;19.80;99.90
18373;DHT22;9313;51.27979100;4.44632000;2022-08-04T02:32:37;19.80;99.90
18373;DHT22;9313;51.27979100;4.44632000;2022-08-04T02:35:18;19.80;99.90
18373;DHT22;9313;51.27979100;4.44632000;2022-08-04T02:38:26;19.90;99.90
18373;DHT22;9313;51.27979100;4.44632000;2022-08-04T02:40:58;19.80;99.90
18373;DHT22;9313;51.27979100;4.44632000;2022-08-04T02:43:27;19.90;99.90
18373;DHT22;9313;51.27979100;4.44632000;2022-08-04T02:45:55;19.80;99.90
18373;DHT22;9313;51.27979100;4.44632000;2022-08-04T02:48:23;19.90;99.90
18373;DHT22;9313;51.27979100;4.44632000;2022-08-04T02:50:52;19.80;99.90
18373;DHT22;9313;51.27979100;4.44632000;2022-08-04T02:53:28;19.80;99.90
18373;DHT22;9313;51.27979100;4.44632000;2022-08-04T02:56:00;19.80;99.90
18373;DHT22;9313;51.27979100;4.44632000;2022-08-04T02:58:29;19.80;99.90
18373;DHT22;9313;51.27979100;4.44632000;2022-08-04T03:01:00;19.80;99.90
18373;DHT22;9313;51.27979100;4.44632000;2022-08-04T03:06:42;19.80;99.90
18373;DHT22;9313;51.27979100;4.44632000;2022-08-04T03:17:55;19.70;99.90
18373;DHT22;9313;51.27979100;4.44632000;2022-08-04T03:37:28;19.60;99.90
18373;DHT22;9313;51.27979100;4.44632000;2022-08-04T03:46:35;19.60;99.90
18373;DHT22;9313;51.27979100;4.44632000;2022-08-04T04:00:06;19.60;99.90
18373;DHT22;9313;51.27979100;4.44632000;2022-08-04T04:14:44;19.60;99.90
18373;DHT22;9313;51.27979100;4.44632000;2022-08-04T04:17:44;19.60;99.90
18373;DHT22;9313;51.27979100;4.44632000;2022-08-04T04:31:55;19.70;99.90
18373;DHT22;9313;51.27979100;4.44632000;2022-08-04T04:34:45;19.70;99.90
18373;DHT22;9313;51.27979100;4.44632000;2022-08-04T04:40:39;19.80;99.90
18373;DHT22;9313;51.27979100;4.44632000;2022-08-04T04:46:20;19.90;99.90
18373;DHT22;9313;51.27979100;4.44632000;2022-08-04T04:52:12;20.00;99.90
18373;DHT22;9313;51.27979100;4.44632000;2022-08-04T04:54:50;20.00;99.90
18373;DHT22;9313;51.27979100;4.44632000;2022-08-04T04:57:23;20.10;99.90
18373;DHT22;9313;51.27979100;4.44632000;2022-08-04T05:08:50;20.40;99.90
18373;DHT22;9313;51.27979100;4.44632000;2022-08-04T05:14:13;20.50;99.90
18373;DHT22;9313;51.27979100;4.44632000;2022-08-04T05:16:41;20.50;99.90
18373;DHT22;9313;51.27979100;4.44632000;2022-08-04T05:19:45;20.60;99.90
18373;DHT22;9313;51.27979100;4.44632000;2022-08-04T05:22:31;20.60;99.90
18373;DHT22;9313;51.27979100;4.44632000;2022-08-04T05:25:06;20.70;99.90
18373;DHT22;9313;51.27979100;4.44632000;2022-08-04T05:27:43;20.70;99.90
18373;DHT22;9313;51.27979100;4.44632000;2022-08-04T05:30:14;20.70;99.90
18373;DHT22;9313;51.27979100;4.44632000;2022-08-04T05:32:49;20.70;99.90
18373;DHT22;9313;51.27979100;4.44632000;2022-08-04T05:35:28;20.80;99.90
18373;DHT22;9313;51.27979100;4.44632000;2022-08-04T05:38:00;20.80;99.90
18373;DHT22;9313;51.27979100;4.44632000;2022-08-04T05:40:28;20.80;99.90
18373;DHT22;9313;51.27979100;4.44632000;2022-08-04T05:43:00;20.90;99.90
18373;DHT22;9313;51.27979100;4.44632000;2022-08-04T05:45:27;20.90;99.90
18373;DHT22;9313;51.27979100;4.44632000;2022-08-04T05:47:55;21.00;99.90
18373;DHT22;9313;51.27979100;4.44632000;2022-08-04T05:50:22;21.00;99.90
18373;DHT22;9313;51.27979100;4.44632000;2022-08-04T05:52:53;21.00;99.90
18373;DHT22;9313;51.27979100;4.44632000;2022-08-04T05:55:24;21.00;99.90
18373;DHT22;9313;51.27979100;4.44632000;2022-08-04T05:57:54;21.10;99.90
18373;DHT22;9313;51.27979100;4.44632000;2022-08-04T06:00:24;21.20;99.90
18373;DHT22;9313;51.27979100;4.44632000;2022-08-04T06:02:52;21.20;99.90
18373;DHT22;9313;51.27979100;4.44632000;2022-08-04T06:05:18;21.30;99.90
18373;DHT22;9313;51.27979100;4.44632000;2022-08-04T06:07:45;21.40;99.90
18373;DHT22;9313;51.27979100;4.44632000;2022-08-04T06:10:15;21.40;99.90
18373;DHT22;9313;51.27979100;4.44632000;2022-08-04T06:12:55;21.60;99.90
18373;DHT22;9313;51.27979100;4.44632000;2022-08-04T06:15:23;21.70;99.90
18373;DHT22;9313;51.27979100;4.44632000;2022-08-04T06:17:58;21.80;99.90
18373;DHT22;9313;51.27979100;4.44632000;2022-08-04T06:20:33;21.90;99.90
18373;DHT22;9313;51.27979100;4.44632000;2022-08-04T06:23:09;22.00;99.90
18373;DHT22;9313;51.27979100;4.44632000;2022-08-04T06:25:47;22.20;99.90
18373;DHT22;9313;51.27979100;4.44632000;2022-08-04T06:28:15;22.30;99.90
18373;DHT22;9313;51.27979100;4.44632000;2022-08-04T06:30:42;22.50;99.90
18373;DHT22;9313;51.27979100;4.44632000;2022-08-04T06:33:13;22.60;99.90
18373;DHT22;9313;51.27979100;4.44632000;2022-08-04T06:35:52;22.70;99.90
18373;DHT22;9313;51.27979100;4.44632000;2022-08-04T06:38:22;22.90;99.90
18373;DHT22;9313;51.27979100;4.44632000;2022-08-04T06:40:52;23.00;99.90
18373;DHT22;9313;51.27979100;4.44632000;2022-08-04T06:43:19;23.20;99.90
18373;DHT22;9313;51.27979100;4.44632000;2022-08-04T06:45:50;23.40;99.90
18373;DHT22;9313;51.27979100;4.44632000;2022-08-04T06:48:20;23.60;99.90
18373;DHT22;9313;51.27979100;4.44632000;2022-08-04T06:50:52;23.70;99.90
18373;DHT22;9313;51.27979100;4.44632000;2022-08-04T06:53:19;23.90;99.90
18373;DHT22;9313;51.27979100;4.44632000;2022-08-04T06:55:50;23.90;99.90
18373;DHT22;9313;51.27979100;4.44632000;2022-08-04T06:58:20;24.10;99.90
18373;DHT22;9313;51.27979100;4.44632000;2022-08-04T07:00:49;24.20;99.90
18373;DHT22;9313;51.27979100;4.44632000;2022-08-04T07:03:19;24.30;99.90
18373;DHT22;9313;51.27979100;4.44632000;2022-08-04T07:05:47;24.40;99.90
18373;DHT22;9313;51.27979100;4.44632000;2022-08-04T07:08:16;24.50;99.90
18373;DHT22;9313;51.27979100;4.44632000;2022-08-04T07:10:46;24.60;99.90
18373;DHT22;9313;51.27979100;4.44632000;2022-08-04T07:13:13;24.70;99.90
18373;DHT22;9313;51.27979100;4.44632000;2022-08-04T07:15:43;24.70;99.90
18373;DHT22;9313;51.27979100;4.44632000;2022-08-04T07:18:12;24.70;99.90
18373;DHT22;9313;51.27979100;4.44632000;2022-08-04T07:20:42;24.80;99.90
18373;DHT22;9313;51.27979100;4.44632000;2022-08-04T07:23:11;24.70;99.90
18373;DHT22;9313;51.27979100;4.44632000;2022-08-04T07:25:42;24.70;99.90
18373;DHT22;9313;51.27979100;4.44632000;2022-08-04T07:28:14;24.70;99.90
18373;DHT22;9313;51.27979100;4.44632000;2022-08-04T07:30:43;24.60;99.90
18373;DHT22;9313;51.27979100;4.44632000;2022-08-04T07:33:10;24.60;99.90
18373;DHT22;9313;51.27979100;4.44632000;2022-08-04T07:35:37;24.50;99.90
18373;DHT22;9313;51.27979100;4.44632000;2022-08-04T07:38:05;24.40;99.90
18373;DHT22;9313;51.27979100;4.44632000;2022-08-04T07:40:35;24.40;99.90
18373;DHT22;9313;51.27979100;4.44632000;2022-08-04T07:43:01;24.30;99.90
18373;DHT22;9313;51.27979100;4.44632000;2022-08-04T07:45:27;24.30;99.90
18373;DHT22;9313;51.27979100;4.44632000;2022-08-04T07:47:56;24.40;99.90
18373;DHT22;9313;51.27979100;4.44632000;2022-08-04T07:50:25;24.40;99.90
18373;DHT22;9313;51.27979100;4.44632000;2022-08-04T07:52:55;24.50;99.90
18373;DHT22;9313;51.27979100;4.44632000;2022-08-04T07:55:22;24.60;99.90
18373;DHT22;9313;51.27979100;4.44632000;2022-08-04T07:57:48;24.70;99.90
18373;DHT22;9313;51.27979100;4.44632000;2022-08-04T08:00:14;24.80;99.90
18373;DHT22;9313;51.27979100;4.44632000;2022-08-04T08:02:48;24.90;99.90
18373;DHT22;9313;51.27979100;4.44632000;2022-08-04T08:05:19;25.00;99.90
18373;DHT22;9313;51.27979100;4.44632000;2022-08-04T08:07:49;25.10;99.90
18373;DHT22;9313;51.27979100;4.44632000;2022-08-04T08:10:16;25.20;99.90
18373;DHT22;9313;51.27979100;4.44632000;2022-08-04T08:12:45;25.40;99.90
18373;DHT22;9313;51.27979100;4.44632000;2022-08-04T08:15:11;25.50;99.90
18373;DHT22;9313;51.27979100;4.44632000;2022-08-04T08:17:40;25.60;99.90
18373;DHT22;9313;51.27979100;4.44632000;2022-08-04T08:20:09;25.60;99.90
18373;DHT22;9313;51.27979100;4.44632000;2022-08-04T08:22:40;25.70;99.90
18373;DHT22;9313;51.27979100;4.44632000;2022-08-04T08:25:10;25.70;99.90
18373;DHT22;9313;51.27979100;4.44632000;2022-08-04T08:27:39;25.80;99.90
18373;DHT22;9313;51.27979100;4.44632000;2022-08-04T08:30:05;25.90;99.90
18373;DHT22;9313;51.27979100;4.44632000;2022-08-04T08:32:34;26.00;99.90
18373;DHT22;9313;51.27979100;4.44632000;2022-08-04T08:35:03;26.00;99.90
18373;DHT22;9313;51.27979100;4.44632000;2022-08-04T08:37:36;26.10;99.90
18373;DHT22;9313;51.27979100;4.44632000;2022-08-04T08:40:29;26.10;99.90
18373;DHT22;9313;51.27979100;4.44632000;2022-08-04T08:43:18;26.00;99.90
18373;DHT22;9313;51.27979100;4.44632000;2022-08-04T08:51:39;24.80;99.90
18373;DHT22;9313;51.27979100;4.44632000;2022-08-04T08:57:01;23.90;99.90
18373;DHT22;9313;51.27979100;4.44632000;2022-08-04T08:59:52;23.40;99.90
18373;DHT22;9313;51.27979100;4.44632000;2022-08-04T09:02:48;23.00;99.90
18373;DHT22;9313;51.27979100;4.44632000;2022-08-04T09:11:11;22.10;99.90
18373;DHT22;9313;51.27979100;4.44632000;2022-08-04T09:13:44;22.00;99.90
18373;DHT22;9313;51.27979100;4.44632000;2022-08-04T09:16:15;21.90;99.90
18373;DHT22;9313;51.27979100;4.44632000;2022-08-04T09:21:37;21.90;99.90
18373;DHT22;9313;51.27979100;4.44632000;2022-08-04T09:24:15;21.80;99.90
18373;DHT22;9313;51.27979100;4.44632000;2022-08-04T09:27:00;21.70;99.90
18373;DHT22;9313;51.27979100;4.44632000;2022-08-04T09:29:51;21.60;99.90
18373;DHT22;9313;51.27979100;4.44632000;2022-08-04T09:37:45;21.50;99.90
18373;DHT22;9313;51.27979100;4.44632000;2022-08-04T09:40:28;21.40;99.90
18373;DHT22;9313;51.27979100;4.44632000;2022-08-04T09:46:22;21.40;99.90
18373;DHT22;9313;51.27979100;4.44632000;2022-08-04T10:00:09;21.90;99.90
18373;DHT22;9313;51.27979100;4.44632000;2022-08-04T10:02:58;22.00;99.90
18373;DHT22;9313;51.27979100;4.44632000;2022-08-04T10:08:27;22.10;99.90
18373;DHT22;9313;51.27979100;4.44632000;2022-08-04T10:11:08;22.20;99.90
18373;DHT22;9313;51.27979100;4.44632000;2022-08-04T10:13:41;22.40;99.90
18373;DHT22;9313;51.27979100;4.44632000;2022-08-04T10:19:34;22.70;99.90
18373;DHT22;9313;51.27979100;4.44632000;2022-08-04T10:22:05;23.00;99.90
18373;DHT22;9313;51.27979100;4.44632000;2022-08-04T10:24:51;23.30;99.90
18373;DHT22;9313;51.27979100;4.44632000;2022-08-04T10:27:27;23.60;99.90
18373;DHT22;9313;51.27979100;4.44632000;2022-08-04T10:30:01;24.10;99.90
18373;DHT22;9313;51.27979100;4.44632000;2022-08-04T10:32:59;24.60;99.90
18373;DHT22;9313;51.27979100;4.44632000;2022-08-04T10:35:31;24.80;99.90
18373;DHT22;9313;51.27979100;4.44632000;2022-08-04T10:38:16;25.10;99.90
18373;DHT22;9313;51.27979100;4.44632000;2022-08-04T10:40:58;25.60;99.90
18373;DHT22;9313;51.27979100;4.44632000;2022-08-04T10:46:31;26.30;99.90
18373;DHT22;9313;51.27979100;4.44632000;2022-08-04T10:49:13;26.60;99.90
18373;DHT22;9313;51.27979100;4.44632000;2022-08-04T10:54:30;26.80;99.90
18373;DHT22;9313;51.27979100;4.44632000;2022-08-04T10:57:07;26.60;99.90
18373;DHT22;9313;51.27979100;4.44632000;2022-08-04T11:00:03;26.80;99.90
18373;DHT22;9313;51.27979100;4.44632000;2022-08-04T11:05:45;26.50;99.90
18373;DHT22;9313;51.27979100;4.44632000;2022-08-04T11:08:43;25.80;99.90
18373;DHT22;9313;51.27979100;4.44632000;2022-08-04T11:11:32;25.40;99.90
18373;DHT22;9313;51.27979100;4.44632000;2022-08-04T11:16:45;25.90;99.90
18373;DHT22;9313;51.27979100;4.44632000;2022-08-04T11:19:41;26.40;99.90
18373;DHT22;9313;51.27979100;4.44632000;2022-08-04T11:22:18;27.00;99.90
18373;DHT22;9313;51.27979100;4.44632000;2022-08-04T11:37:02;28.20;99.90
18373;DHT22;9313;51.27979100;4.44632000;2022-08-04T11:39:33;28.10;99.90
18373;DHT22;9313;51.27979100;4.44632000;2022-08-04T11:44:54;28.70;99.90
18373;DHT22;9313;51.27979100;4.44632000;2022-08-04T11:50:28;29.00;99.90
18373;DHT22;9313;51.27979100;4.44632000;2022-08-04T11:53:01;29.10;99.90
18373;DHT22;9313;51.27979100;4.44632000;2022-08-04T11:55:31;29.10;99.90
18373;DHT22;9313;51.27979100;4.44632000;2022-08-04T11:58:02;29.20;99.90
18373;DHT22;9313;51.27979100;4.44632000;2022-08-04T12:00:39;29.40;99.90
18373;DHT22;9313;51.27979100;4.44632000;2022-08-04T12:12:06;30.00;99.90
18373;DHT22;9313;51.27979100;4.44632000;2022-08-04T12:17:40;31.10;99.90
18373;DHT22;9313;51.27979100;4.44632000;2022-08-04T12:20:10;31.60;99.90
18373;DHT22;9313;51.27979100;4.44632000;2022-08-04T12:22:47;31.90;99.90
18373;DHT22;9313;51.27979100;4.44632000;2022-08-04T12:25:25;32.30;99.90
18373;DHT22;9313;51.27979100;4.44632000;2022-08-04T12:28:27;32.80;99.90
18373;DHT22;9313;51.27979100;4.44632000;2022-08-04T12:31:04;32.90;99.90
18373;DHT22;9313;51.27979100;4.44632000;2022-08-04T12:33:54;33.00;99.90
18373;DHT22;9313;51.27979100;4.44632000;2022-08-04T12:36:36;33.10;99.90
18373;DHT22;9313;51.27979100;4.44632000;2022-08-04T12:39:11;33.40;99.90
18373;DHT22;9313;51.27979100;4.44632000;2022-08-04T12:44:37;33.80;99.90
18373;DHT22;9313;51.27979100;4.44632000;2022-08-04T12:47:12;33.80;99.90
18373;DHT22;9313;51.27979100;4.44632000;2022-08-04T12:49:43;33.30;99.90
18373;DHT22;9313;51.27979100;4.44632000;2022-08-04T12:52:16;33.10;99.90
18373;DHT22;9313;51.27979100;4.44632000;2022-08-04T12:54:53;32.80;99.90
18373;DHT22;9313;51.27979100;4.44632000;2022-08-04T12:57:21;32.70;99.90
18373;DHT22;9313;51.27979100;4.44632000;2022-08-04T12:59:50;32.50;99.90
18373;DHT22;9313;51.27979100;4.44632000;2022-08-04T13:02:26;32.50;99.90
18373;DHT22;9313;51.27979100;4.44632000;2022-08-04T13:04:57;32.40;99.90
18373;DHT22;9313;51.27979100;4.44632000;2022-08-04T13:07:27;32.50;99.90
18373;DHT22;9313;51.27979100;4.44632000;2022-08-04T13:10:10;32.50;99.90
18373;DHT22;9313;51.27979100;4.44632000;2022-08-04T13:12:43;32.50;99.90
18373;DHT22;9313;51.27979100;4.44632000;2022-08-04T13:15:19;32.50;99.90
18373;DHT22;9313;51.27979100;4.44632000;2022-08-04T13:17:52;32.60;99.90
18373;DHT22;9313;51.27979100;4.44632000;2022-08-04T13:20:27;32.70;99.90
18373;DHT22;9313;51.27979100;4.44632000;2022-08-04T13:23:04;32.50;99.90
18373;DHT22;9313;51.27979100;4.44632000;2022-08-04T13:25:31;32.30;99.90
18373;DHT22;9313;51.27979100;4.44632000;2022-08-04T13:27:58;32.50;99.90
18373;DHT22;9313;51.27979100;4.44632000;2022-08-04T13:30:30;32.70;99.90
18373;DHT22;9313;51.27979100;4.44632000;2022-08-04T13:33:03;32.70;99.90
18373;DHT22;9313;51.27979100;4.44632000;2022-08-04T13:35:31;32.60;99.90
18373;DHT22;9313;51.27979100;4.44632000;2022-08-04T13:38:04;32.80;99.90
18373;DHT22;9313;51.27979100;4.44632000;2022-08-04T13:40:36;33.10;99.90
18373;DHT22;9313;51.27979100;4.44632000;2022-08-04T13:43:06;33.10;99.90
18373;DHT22;9313;51.27979100;4.44632000;2022-08-04T13:45:34;33.20;99.90
18373;DHT22;9313;51.27979100;4.44632000;2022-08-04T13:48:03;33.40;99.90
18373;DHT22;9313;51.27979100;4.44632000;2022-08-04T13:50:31;33.50;99.90
18373;DHT22;9313;51.27979100;4.44632000;2022-08-04T13:53:01;33.60;99.90
18373;DHT22;9313;51.27979100;4.44632000;2022-08-04T13:55:35;33.40;99.90
18373;DHT22;9313;51.27979100;4.44632000;2022-08-04T13:58:06;33.50;99.90
18373;DHT22;9313;51.27979100;4.44632000;2022-08-04T14:03:17;34.50;99.90
18373;DHT22;9313;51.27979100;4.44632000;2022-08-04T14:06:14;34.80;99.90
18373;DHT22;9313;51.27979100;4.44632000;2022-08-04T14:08:51;35.40;99.90
18373;DHT22;9313;51.27979100;4.44632000;2022-08-04T14:11:30;35.80;99.90
18373;DHT22;9313;51.27979100;4.44632000;2022-08-04T14:14:18;36.20;99.30
18373;DHT22;9313;51.27979100;4.44632000;2022-08-04T14:19:58;36.90;98.20
18373;DHT22;9313;51.27979100;4.44632000;2022-08-04T14:27:23;38.00;95.80
18373;DHT22;9313;51.27979100;4.44632000;2022-08-04T14:29:54;38.10;95.20
18373;DHT22;9313;51.27979100;4.44632000;2022-08-04T14:32:23;38.20;95.20
18373;DHT22;9313;51.27979100;4.44632000;2022-08-04T14:34:54;38.60;94.20
18373;DHT22;9313;51.27979100;4.44632000;2022-08-04T14:37:20;38.60;93.90
18373;DHT22;9313;51.27979100;4.44632000;2022-08-04T14:39:52;38.50;93.70
18373;DHT22;9313;51.27979100;4.44632000;2022-08-04T14:42:44;37.80;93.30
18373;DHT22;9313;51.27979100;4.44632000;2022-08-04T14:45:15;37.10;94.10
18373;DHT22;9313;51.27979100;4.44632000;2022-08-04T14:47:45;37.40;93.20
18373;DHT22;9313;51.27979100;4.44632000;2022-08-04T14:50:13;37.40;93.40
18373;DHT22;9313;51.27979100;4.44632000;2022-08-04T14:52:39;37.10;93.40
18373;DHT22;9313;51.27979100;4.44632000;2022-08-04T14:55:21;36.80;93.40
18373;DHT22;9313;51.27979100;4.44632000;2022-08-04T14:57:48;37.10;93.20
18373;DHT22;9313;51.27979100;4.44632000;2022-08-04T15:00:28;37.30;93.20
18373;DHT22;9313;51.27979100;4.44632000;2022-08-04T15:03:08;37.10;92.90
18373;DHT22;9313;51.27979100;4.44632000;2022-08-04T15:05:43;37.00;93.20
18373;DHT22;9313;51.27979100;4.44632000;2022-08-04T15:08:12;36.80;92.40
18373;DHT22;9313;51.27979100;4.44632000;2022-08-04T15:10:43;36.30;93.10
18373;DHT22;9313;51.27979100;4.44632000;2022-08-04T15:13:15;36.20;92.80
18373;DHT22;9313;51.27979100;4.44632000;2022-08-04T15:15:42;36.80;93.30
18373;DHT22;9313;51.27979100;4.44632000;2022-08-04T15:18:14;37.40;92.80
18373;DHT22;9313;51.27979100;4.44632000;2022-08-04T15:20:43;38.20;92.80
18373;DHT22;9313;51.27979100;4.44632000;2022-08-04T15:23:08;38.70;92.60
18373;DHT22;9313;51.27979100;4.44632000;2022-08-04T15:25:38;38.80;92.10
18373;DHT22;9313;51.27979100;4.44632000;2022-08-04T15:28:15;38.90;92.20
18373;DHT22;9313;51.27979100;4.44632000;2022-08-04T15:30:47;39.00;91.50
18373;DHT22;9313;51.27979100;4.44632000;2022-08-04T15:33:15;38.80;91.60
18373;DHT22;9313;51.27979100;4.44632000;2022-08-04T15:42:13;39.50;91.20
18373;DHT22;9313;51.27979100;4.44632000;2022-08-04T15:47:41;40.10;90.50
18373;DHT22;9313;51.27979100;4.44632000;2022-08-04T15:50:11;40.10;90.50
18373;DHT22;9313;51.27979100;4.44632000;2022-08-04T15:58:06;39.90;90.10
18373;DHT22;9313;51.27979100;4.44632000;2022-08-04T16:01:12;39.90;90.10
18373;DHT22;9313;51.27979100;4.44632000;2022-08-04T16:03:48;39.50;90.10
18373;DHT22;9313;51.27979100;4.44632000;2022-08-04T16:16:27;37.40;90.30
18373;DHT22;9313;51.27979100;4.44632000;2022-08-04T16:21:55;35.80;90.20
18373;DHT22;9313;51.27979100;4.44632000;2022-08-04T16:27:00;34.20;90.90
18373;DHT22;9313;51.27979100;4.44632000;2022-08-04T16:32:21;32.70;92.40
18373;DHT22;9313;51.27979100;4.44632000;2022-08-04T16:35:02;32.10;92.50
18373;DHT22;9313;51.27979100;4.44632000;2022-08-04T16:43:15;30.30;93.50
18373;DHT22;9313;51.27979100;4.44632000;2022-08-04T16:53:22;30.50;94.50
18373;DHT22;9313;51.27979100;4.44632000;2022-08-04T16:55:53;30.80;93.50
18373;DHT22;9313;51.27979100;4.44632000;2022-08-04T16:58:34;30.80;93.70
18373;DHT22;9313;51.27979100;4.44632000;2022-08-04T17:01:24;30.80;93.90
18373;DHT22;9313;51.27979100;4.44632000;2022-08-04T17:03:53;30.70;93.70
18373;DHT22;9313;51.27979100;4.44632000;2022-08-04T17:06:19;30.20;94.10
18373;DHT22;9313;51.27979100;4.44632000;2022-08-04T17:08:50;29.60;94.50
18373;DHT22;9313;51.27979100;4.44632000;2022-08-04T17:11:16;29.10;94.70
18373;DHT22;9313;51.27979100;4.44632000;2022-08-04T17:13:46;28.70;95.00
18373;DHT22;9313;51.27979100;4.44632000;2022-08-04T17:16:16;28.30;95.30
18373;DHT22;9313;51.27979100;4.44632000;2022-08-04T17:18:50;27.80;95.60
18373;DHT22;9313;51.27979100;4.44632000;2022-08-04T17:21:22;27.60;96.10
18373;DHT22;9313;51.27979100;4.44632000;2022-08-04T17:23:50;27.60;96.40
18373;DHT22;9313;51.27979100;4.44632000;2022-08-04T17:26:29;27.60;96.50
18373;DHT22;9313;51.27979100;4.44632000;2022-08-04T17:29:00;27.50;96.50
18373;DHT22;9313;51.27979100;4.44632000;2022-08-04T17:31:31;27.40;96.80
18373;DHT22;9313;51.27979100;4.44632000;2022-08-04T17:34:07;27.20;97.10
18373;DHT22;9313;51.27979100;4.44632000;2022-08-04T17:36:33;27.20;97.40
18373;DHT22;9313;51.27979100;4.44632000;2022-08-04T17:39:18;27.10;97.20
18373;DHT22;9313;51.27979100;4.44632000;2022-08-04T17:41:45;27.10;97.30
18373;DHT22;9313;51.27979100;4.44632000;2022-08-04T17:44:12;27.10;97.50
18373;DHT22;9313;51.27979100;4.44632000;2022-08-04T17:46:41;27.10;97.70
18373;DHT22;9313;51.27979100;4.44632000;2022-08-04T17:49:21;27.00;98.00
18373;DHT22;9313;51.27979100;4.44632000;2022-08-04T17:51:57;26.90;97.90
18373;DHT22;9313;51.27979100;4.44632000;2022-08-04T17:56:58;26.40;97.80
18373;DHT22;9313;51.27979100;4.44632000;2022-08-04T17:59:28;26.20;98.10
18373;DHT22;9313;51.27979100;4.44632000;2022-08-04T18:02:02;25.90;98.30
18373;DHT22;9313;51.27979100;4.44632000;2022-08-04T18:04:35;25.60;98.50
18373;DHT22;9313;51.27979100;4.44632000;2022-08-04T18:07:14;25.50;98.50
18373;DHT22;9313;51.27979100;4.44632000;2022-08-04T18:14:58;25.00;99.10
18373;DHT22;9313;51.27979100;4.44632000;2022-08-04T18:20:03;24.80;99.70
18373;DHT22;9313;51.27979100;4.44632000;2022-08-04T18:22:30;24.80;99.90
18373;DHT22;9313;51.27979100;4.44632000;2022-08-04T18:24:59;24.80;99.90
18373;DHT22;9313;51.27979100;4.44632000;2022-08-04T18:27:26;24.80;99.90
18373;DHT22;9313;51.27979100;4.44632000;2022-08-04T18:29:53;24.70;99.90
18373;DHT22;9313;51.27979100;4.44632000;2022-08-04T18:32:22;24.60;99.90
18373;DHT22;9313;51.27979100;4.44632000;2022-08-04T18:34:55;24.60;99.90
18373;DHT22;9313;51.27979100;4.44632000;2022-08-04T18:37:22;24.40;99.90
18373;DHT22;9313;51.27979100;4.44632000;2022-08-04T18:39:48;24.30;99.90
18373;DHT22;9313;51.27979100;4.44632000;2022-08-04T18:42:16;24.10;99.90
18373;DHT22;9313;51.27979100;4.44632000;2022-08-04T18:44:45;24.00;99.90
18373;DHT22;9313;51.27979100;4.44632000;2022-08-04T18:47:11;23.90;99.90
18373;DHT22;9313;51.27979100;4.44632000;2022-08-04T18:49:42;23.80;99.90
18373;DHT22;9313;51.27979100;4.44632000;2022-08-04T18:52:08;23.60;99.90
18373;DHT22;9313;51.27979100;4.44632000;2022-08-04T18:54:38;23.50;99.90
18373;DHT22;9313;51.27979100;4.44632000;2022-08-04T18:57:03;23.50;99.90